< Typhoon 199707 1997 Season Typhoon 199709 >
Typhoon 199708 (PETER)
General InformationTrack Information on Google MapsDetailed Wind InformationList of All Images || NewsDisaster Info.ResourceGoogle EarthGE AnimationAtom FeedGeoJSON
Detalied Best Track (Time Zone = UTC)
Year Month Day Hour Lat. Long. Pressure (hPa) Wind (kt) Class Image Chart
1997 6 22 06 13.2 132.3 1004 0 2 Image Chart
1997 6 22 12 13.2 132.2 1004 0 2 Image Chart
1997 6 22 18 13.2 132.1 1002 0 2 Image Chart
1997 6 23 00 13.2 131.8 1000 0 2 Image Chart
1997 6 23 06 13.4 131.3 1000 0 2 Image Chart
1997 6 23 12 13.6 130.9 998 0 2 Image Chart
1997 6 23 18 14.0 130.5 998 0 2 Image Chart
1997 6 24 00 14.5 130.0 998 0 2 Image Chart
1997 6 24 06 15.4 129.1 996 35 3 Image Chart
1997 6 24 12 16.1 128.2 996 35 3 Image Chart
1997 6 24 18 16.6 127.4 996 35 3 Image Chart
1997 6 25 00 17.2 126.7 994 40 3 Image Chart
1997 6 25 06 18.0 126.5 992 45 3 Image Chart
1997 6 25 12 18.8 126.6 990 45 3 Image Chart
1997 6 25 18 19.7 126.7 990 45 3 Image Chart
1997 6 26 00 20.8 126.7 985 50 4 Image Chart
1997 6 26 06 22.2 126.7 980 55 4 Image Chart
1997 6 26 12 23.6 126.5 980 55 4 Image Chart
1997 6 26 15 24.3 126.3 975 60 4 Image Chart
1997 6 26 18 25.0 126.3 975 60 4 Image Chart
1997 6 26 21 25.7 126.3 975 60 4 Image Chart
1997 6 27 00 26.4 126.3 975 60 4 Image Chart
1997 6 27 03 27.2 126.4 975 60 4 Image Chart
1997 6 27 06 28.4 126.5 970 65 5 Image Chart
1997 6 27 09 29.4 126.8 970 65 5 Image Chart
1997 6 27 12 30.0 127.1 970 65 5 Image Chart
1997 6 27 15 30.9 127.8 970 65 5 Image Chart
1997 6 27 18 31.7 128.4 970 65 5 Image Chart
1997 6 27 21 32.2 128.9 975 60 4 Image Chart
1997 6 28 00 32.8 129.7 975 60 4 Image Chart
1997 6 28 03 33.1 130.7 975 60 4 Image Chart
1997 6 28 06 33.9 132.4 980 55 4 Image Chart
1997 6 28 07 34.3 133.2 980 55 4 Image Chart
1997 6 28 09 34.8 134.4 980 55 4 Image Chart
1997 6 28 12 35.7 136.3 980 50 4 Image Chart
1997 6 28 15 36.5 138.7 980 50 4 Image Chart
1997 6 28 18 37.0 140.6 980 50 4 Image Chart
1997 6 28 21 38.0 143.8 980 0 6 Image Chart
1997 6 29 00 40.1 147.3 984 0 6 Image Chart
1997 6 29 06 42.5 151.2 980 0 6 Image Chart
1997 6 29 12 45.4 154.1 976 0 6 Image Chart
1997 6 29 18 46.4 153.6 970 0 6 Image Chart
1997 6 30 00 46.6 153.5 968 0 6 Image Chart
1997 6 30 06 46.1 154.1 968 0 6 Image Chart
1997 6 30 12 45.9 156.5 970 0 6 Image Chart
1997 6 30 18 46.4 158.8 974 0 6 Image Chart
1997 7 1 00 46.8 160.4 980 0 6 Image Chart
1997 7 1 06 47.3 161.7 984 0 6 Image Chart
1997 7 1 12 47.5 162.6 988 0 6 Image Chart
1997 7 1 18 47.6 163.1 992 0 6 Image Chart
1997 7 2 00 46.8 164.5 994 0 6 Image Chart
1997 7 2 06 46.0 166.3 996 0 6 Image Chart
1997 7 2 12 46.1 168.6 998 0 6 Image Chart
1997 7 2 18 46.8 169.8 998 0 6 Image Chart
1997 7 3 00 47.4 171.9 998 0 6 Image Chart
1997 7 3 06 47.7 174.8 998 0 6 Image Chart
1997 7 3 12 48.4 177.7 998 0 6 Image Chart
1997 7 3 18 49.3 179.3 1000 0 6 Image Chart
1997 7 4 00 50.0 180.9 1000 0 6 Image Chart
Japan Meteorological Agency Best Track Data | Correction Date : 1998-01-19
< Typhoon 199707 1997 Season Typhoon 199709 >

Help